createdAt,value
2018-07-25T00:00:13.253Z,8.60
2018-07-25T00:02:42.141Z,9.13
2018-07-25T00:05:11.068Z,8.17
2018-07-25T00:07:39.860Z,8.27
2018-07-25T00:10:10.216Z,8.80
2018-07-25T00:12:39.083Z,8.93
2018-07-25T00:15:08.044Z,8.70
2018-07-25T00:17:36.952Z,8.63
2018-07-25T00:20:06.245Z,9.03
2018-07-25T00:22:35.110Z,8.03
2018-07-25T00:25:04.459Z,8.90
2018-07-25T00:27:33.508Z,9.10
2018-07-25T00:30:02.380Z,8.90
2018-07-25T00:32:31.305Z,8.50
2018-07-25T00:35:00.234Z,9.27
2018-07-25T00:37:29.158Z,8.67
2018-07-25T00:39:57.985Z,9.10
2018-07-25T00:42:26.760Z,8.87
2018-07-25T00:44:55.632Z,8.40
2018-07-25T00:47:24.614Z,8.60
2018-07-25T00:49:53.533Z,8.80
2018-07-25T00:52:22.563Z,9.77
2018-07-25T00:54:51.444Z,8.77
2018-07-25T00:57:20.483Z,8.20
2018-07-25T00:59:49.388Z,9.13
2018-07-25T01:02:18.195Z,9.80
2018-07-25T01:04:47.127Z,8.73
2018-07-25T01:07:15.965Z,9.63
2018-07-25T01:09:44.826Z,8.37
2018-07-25T01:12:13.665Z,9.33
2018-07-25T01:14:42.549Z,8.50
2018-07-25T01:17:11.386Z,9.23
2018-07-25T01:19:40.259Z,8.90
2018-07-25T01:22:09.188Z,9.40
2018-07-25T01:24:38.031Z,9.43
2018-07-25T01:27:07.052Z,9.00
2018-07-25T01:29:35.869Z,8.83
2018-07-25T01:32:04.705Z,8.20
2018-07-25T01:34:33.566Z,8.60
2018-07-25T01:37:02.407Z,7.97
2018-07-25T01:39:31.189Z,8.23
2018-07-25T01:42:00.146Z,8.37
2018-07-25T01:44:29.068Z,8.30
2018-07-25T01:46:57.936Z,8.53
2018-07-25T01:49:26.794Z,8.90
2018-07-25T01:51:55.660Z,9.03
2018-07-25T01:54:24.474Z,9.17
2018-07-25T01:56:53.406Z,9.03
2018-07-25T01:59:22.405Z,8.83
2018-07-25T02:01:51.256Z,8.47
2018-07-25T02:04:20.129Z,8.50
2018-07-25T02:06:49.260Z,9.37
2018-07-25T02:09:18.214Z,9.73
2018-07-25T02:11:47.192Z,8.70
2018-07-25T02:14:16.116Z,8.87
2018-07-25T02:16:44.978Z,8.87
2018-07-25T02:19:13.873Z,8.70
2018-07-25T02:21:42.784Z,8.83
2018-07-25T02:24:11.702Z,9.00
2018-07-25T02:26:40.721Z,8.13
2018-07-25T02:29:09.976Z,9.27
2018-07-25T02:31:38.918Z,9.27
2018-07-25T02:34:13.024Z,9.10
2018-07-25T02:36:41.869Z,9.13
2018-07-25T02:39:12.567Z,10.10
2018-07-25T02:41:41.704Z,9.20
2018-07-25T02:44:10.544Z,9.10
2018-07-25T02:46:39.496Z,9.63
2018-07-25T02:49:08.477Z,8.83
2018-07-25T02:51:37.496Z,9.33
2018-07-25T02:54:06.846Z,10.10
2018-07-25T02:56:35.698Z,9.03
2018-07-25T02:59:05.137Z,9.50
2018-07-25T03:01:34.399Z,9.43
2018-07-25T03:04:03.320Z,9.83
2018-07-25T03:06:32.294Z,9.53
2018-07-25T03:09:01.201Z,10.23
2018-07-25T03:11:29.988Z,9.50
2018-07-25T03:14:00.582Z,9.33
2018-07-25T03:16:29.507Z,9.47
2018-07-25T03:18:58.455Z,10.37
2018-07-25T03:21:27.334Z,10.40
2018-07-25T03:23:56.260Z,10.07
2018-07-25T03:26:25.118Z,10.27
2018-07-25T03:28:53.871Z,10.50
2018-07-25T03:31:22.899Z,10.03
2018-07-25T03:33:51.801Z,9.70
2018-07-25T03:36:20.653Z,9.70
2018-07-25T03:38:49.429Z,10.10
2018-07-25T03:41:18.465Z,10.10
2018-07-25T03:43:48.655Z,10.37
2018-07-25T03:46:17.570Z,9.63
2018-07-25T03:48:46.401Z,9.50
2018-07-25T03:51:15.376Z,10.07
2018-07-25T03:53:44.222Z,9.47
2018-07-25T03:56:13.050Z,10.73
2018-07-25T03:58:41.905Z,10.27
2018-07-25T04:01:10.659Z,9.20
2018-07-25T04:03:39.548Z,9.77
2018-07-25T04:06:08.523Z,9.97
2018-07-25T04:08:38.336Z,10.50
2018-07-25T04:11:07.171Z,10.27
2018-07-25T04:13:36.184Z,9.67
2018-07-25T04:16:08.276Z,9.87
2018-07-25T04:18:37.108Z,9.40
2018-07-25T04:21:06.058Z,9.87
2018-07-25T04:23:34.916Z,9.80
2018-07-25T04:26:03.725Z,9.53
2018-07-25T04:28:32.529Z,9.30
2018-07-25T04:31:02.154Z,9.80
2018-07-25T04:33:30.986Z,9.37
2018-07-25T04:35:59.834Z,10.30
2018-07-25T04:38:28.666Z,9.73
2018-07-25T04:40:57.458Z,10.17
2018-07-25T04:43:27.178Z,10.10
2018-07-25T04:45:57.608Z,10.10
2018-07-25T04:48:26.395Z,9.70
2018-07-25T04:50:55.287Z,9.60
2018-07-25T04:53:24.089Z,9.33
2018-07-25T04:55:53.008Z,9.73
2018-07-25T04:58:21.798Z,9.67
2018-07-25T05:00:50.697Z,9.73
2018-07-25T05:03:21.210Z,8.97
2018-07-25T05:05:49.967Z,9.57
2018-07-25T05:08:18.813Z,9.17
2018-07-25T05:10:47.615Z,9.47
2018-07-25T05:13:16.821Z,9.93
2018-07-25T05:15:45.810Z,9.83
2018-07-25T05:18:14.677Z,8.83
2018-07-25T05:20:43.806Z,9.47
2018-07-25T05:23:13.710Z,9.57
2018-07-25T05:25:42.597Z,9.93
2018-07-25T05:28:11.417Z,9.60
2018-07-25T05:30:40.309Z,9.17
2018-07-25T05:33:09.136Z,9.33
2018-07-25T05:35:38.230Z,9.73
2018-07-25T05:38:07.180Z,8.77
2018-07-25T05:40:36.128Z,9.23
2018-07-25T05:43:05.045Z,10.17
2018-07-25T05:45:35.302Z,9.13
2018-07-25T05:48:04.180Z,9.70
2018-07-25T05:50:32.981Z,9.47
2018-07-25T05:53:02.701Z,9.23
2018-07-25T05:55:31.467Z,9.57
2018-07-25T05:58:00.400Z,9.53
2018-07-25T06:00:29.385Z,8.83
2018-07-25T06:02:58.488Z,10.20
2018-07-25T06:05:27.143Z,10.40
2018-07-25T06:07:56.188Z,9.37
2018-07-25T06:10:25.044Z,10.37
2018-07-25T06:12:53.953Z,9.10
2018-07-25T06:15:22.716Z,10.43
2018-07-25T06:17:51.703Z,9.33
2018-07-25T06:20:20.615Z,9.60
2018-07-25T06:22:50.471Z,10.07
2018-07-25T06:25:19.503Z,8.87
2018-07-25T06:27:48.356Z,9.80
2018-07-25T06:30:17.223Z,9.67
2018-07-25T06:32:46.083Z,9.97
2018-07-25T06:35:14.837Z,10.87
2018-07-25T06:37:45.333Z,10.33
2018-07-25T06:40:14.208Z,10.10
2018-07-25T06:42:43.797Z,9.70
2018-07-25T06:45:12.650Z,10.30
2018-07-25T06:47:41.593Z,9.03
2018-07-25T06:50:10.435Z,9.77
2018-07-25T06:52:39.319Z,10.07
2018-07-25T06:55:08.183Z,10.03
2018-07-25T06:57:37.070Z,9.77
2018-07-25T07:00:06.942Z,9.77
2018-07-25T07:02:35.843Z,10.03
2018-07-25T07:05:04.959Z,9.53
2018-07-25T07:07:36.149Z,9.77
2018-07-25T07:10:05.240Z,10.97
2018-07-25T07:12:33.979Z,10.03
2018-07-25T07:15:03.118Z,9.37
2018-07-25T07:17:32.040Z,10.10
2018-07-25T07:20:00.723Z,9.60
2018-07-25T07:22:29.710Z,10.43
2018-07-25T07:25:02.216Z,10.30
2018-07-25T07:27:30.985Z,10.47
2018-07-25T07:29:59.689Z,10.93
2018-07-25T07:32:30.996Z,10.50
2018-07-25T07:34:59.851Z,9.90
2018-07-25T07:37:28.685Z,10.50
2018-07-25T07:39:57.393Z,9.73
2018-07-25T07:42:26.387Z,10.40
2018-07-25T07:44:55.111Z,9.73
2018-07-25T07:47:23.965Z,9.50
2018-07-25T07:49:52.831Z,10.17
2018-07-25T07:52:21.824Z,10.27
2018-07-25T07:54:51.017Z,10.00
2018-07-25T07:57:19.941Z,10.43
2018-07-25T07:59:48.820Z,11.00
2018-07-25T08:02:17.624Z,9.00
2018-07-25T08:04:46.504Z,9.53
2018-07-25T08:07:17.479Z,10.67
2018-07-25T08:09:46.410Z,10.70
2018-07-25T08:12:16.201Z,9.93
2018-07-25T08:14:45.107Z,10.30
2018-07-25T08:17:13.867Z,9.97
2018-07-25T08:19:42.694Z,10.03
2018-07-25T08:22:11.544Z,9.73
2018-07-25T08:24:43.580Z,7.80
2018-07-25T08:27:13.166Z,6.77
2018-07-25T08:29:41.964Z,8.27
2018-07-25T08:32:11.128Z,8.20
2018-07-25T08:34:40.051Z,8.50
2018-07-25T08:37:08.653Z,8.30
2018-07-25T08:39:38.699Z,7.10
2018-07-25T08:42:07.816Z,8.30
2018-07-25T08:44:36.584Z,8.60
2018-07-25T08:47:05.550Z,8.67
2018-07-25T08:49:34.360Z,8.37
2018-07-25T08:52:03.180Z,8.27
2018-07-25T08:54:31.995Z,7.83
2018-07-25T08:57:00.862Z,8.30
2018-07-25T08:59:29.639Z,7.63
2018-07-25T09:01:59.627Z,8.47
2018-07-25T09:04:28.501Z,8.33
2018-07-25T09:06:58.422Z,9.50
2018-07-25T09:09:27.140Z,8.97
2018-07-25T09:11:56.023Z,8.20
2018-07-25T09:14:24.759Z,9.77
2018-07-25T09:16:53.631Z,8.77
2018-07-25T09:19:22.588Z,8.73
2018-07-25T09:21:51.453Z,9.13
2018-07-25T09:24:20.425Z,8.63
2018-07-25T09:26:49.218Z,9.03
2018-07-25T09:29:18.065Z,9.53
2018-07-25T09:31:47.651Z,8.53
2018-07-25T09:34:16.718Z,8.60
2018-07-25T09:37:01.450Z,9.40
2018-07-25T09:39:30.306Z,8.90
2018-07-25T09:41:59.054Z,9.30
2018-07-25T09:44:27.945Z,9.23
2018-07-25T09:47:00.812Z,8.73
2018-07-25T09:49:31.346Z,9.20
2018-07-25T09:52:00.168Z,8.60
2018-07-25T09:54:29.093Z,8.97
2018-07-25T09:57:00.516Z,9.13
2018-07-25T09:59:29.525Z,9.53
2018-07-25T10:02:15.214Z,8.57
2018-07-25T10:04:43.993Z,9.30
2018-07-25T10:07:12.860Z,8.57
2018-07-25T10:09:43.800Z,9.07
2018-07-25T10:12:12.662Z,9.23
2018-07-25T10:14:41.465Z,7.60
2018-07-25T10:17:10.325Z,7.30
2018-07-25T10:19:39.153Z,7.37
2018-07-25T10:22:07.982Z,8.50
2018-07-25T10:24:36.948Z,8.80
2018-07-25T10:27:10.569Z,7.80
2018-07-25T10:29:39.628Z,7.83
2018-07-25T10:32:08.547Z,7.40
2018-07-25T10:34:37.293Z,7.53
2018-07-25T10:37:06.250Z,7.23
2018-07-25T10:39:35.162Z,8.27
2018-07-25T10:42:05.420Z,7.60
2018-07-25T10:44:34.205Z,7.53
2018-07-25T10:47:03.000Z,6.80
2018-07-25T10:49:31.842Z,6.97
2018-07-25T10:52:00.768Z,7.17
2018-07-25T10:54:29.621Z,6.60
2018-07-25T10:57:04.481Z,6.13
2018-07-25T10:59:34.040Z,6.00
2018-07-25T11:02:04.216Z,6.47
2018-07-25T11:04:34.390Z,7.00
2018-07-25T11:07:03.283Z,6.43
2018-07-25T11:09:32.492Z,6.40
2018-07-25T11:12:02.219Z,7.53
2018-07-25T11:14:31.593Z,6.97
2018-07-25T11:17:00.512Z,6.30
2018-07-25T11:19:29.257Z,6.47
2018-07-25T11:21:58.135Z,6.33
2018-07-25T11:24:26.970Z,5.90
2018-07-25T11:26:55.807Z,5.37
2018-07-25T11:29:24.672Z,6.70
2018-07-25T11:31:53.465Z,6.23
2018-07-25T11:34:22.134Z,5.80
2018-07-25T11:36:51.040Z,6.63
2018-07-25T11:39:19.816Z,5.87
2018-07-25T11:41:48.834Z,5.97
2018-07-25T11:44:17.595Z,5.50
2018-07-25T11:46:46.663Z,4.93
2018-07-25T11:49:15.710Z,5.40
2018-07-25T11:51:46.922Z,5.40
2018-07-25T11:54:15.915Z,4.87
2018-07-25T11:56:44.995Z,5.57
2018-07-25T11:59:14.441Z,5.07
2018-07-25T12:01:43.533Z,5.30
2018-07-25T12:04:12.262Z,4.90
2018-07-25T12:06:41.154Z,5.30
2018-07-25T12:09:11.132Z,5.00
2018-07-25T12:11:45.344Z,4.93
2018-07-25T12:14:15.421Z,5.17
2018-07-25T12:16:44.234Z,4.87
2018-07-25T12:19:14.927Z,5.33
2018-07-25T12:21:43.627Z,5.10
2018-07-25T12:24:12.357Z,4.43
2018-07-25T12:26:41.558Z,5.00
2018-07-25T12:29:10.493Z,3.90
2018-07-25T12:31:39.350Z,4.03
2018-07-25T12:34:09.969Z,4.20
2018-07-25T12:36:38.799Z,4.00
2018-07-25T12:39:09.056Z,4.10
2018-07-25T12:41:38.312Z,4.40
2018-07-25T12:44:07.149Z,4.50
2018-07-25T12:46:38.396Z,4.00
2018-07-25T12:49:07.225Z,4.73
2018-07-25T12:51:36.052Z,4.20
2018-07-25T12:54:05.164Z,4.17
2018-07-25T12:56:33.920Z,4.37
2018-07-25T12:59:02.692Z,4.73
2018-07-25T13:01:33.487Z,4.50
2018-07-25T13:04:02.442Z,4.00
2018-07-25T13:06:31.527Z,4.23
2018-07-25T13:09:00.507Z,3.70
2018-07-25T13:11:30.213Z,4.47
2018-07-25T13:13:59.021Z,4.20
2018-07-25T13:16:27.793Z,4.00
2018-07-25T13:18:57.534Z,4.07
2018-07-25T13:21:26.406Z,4.10
2018-07-25T13:23:56.124Z,3.97
2018-07-25T13:26:24.979Z,3.50
2018-07-25T13:28:56.869Z,3.73
2018-07-25T13:31:26.023Z,3.40
2018-07-25T13:33:55.946Z,3.90
2018-07-25T13:36:24.928Z,3.23
2018-07-25T13:38:53.772Z,3.73
2018-07-25T13:42:25.388Z,3.17
2018-07-25T13:44:54.941Z,3.00
2018-07-25T13:47:25.989Z,2.83
2018-07-25T13:49:56.325Z,3.30
2018-07-25T13:52:25.440Z,3.40
2018-07-25T13:54:54.213Z,2.93
2018-07-25T13:57:23.191Z,3.17
2018-07-25T13:59:52.018Z,3.10
2018-07-25T14:02:20.775Z,3.00
2018-07-25T14:04:49.666Z,2.87
2018-07-25T14:07:18.577Z,2.63
2018-07-25T14:09:47.560Z,2.60
2018-07-25T14:12:16.536Z,2.40
2018-07-25T14:14:45.447Z,2.93
2018-07-25T14:17:15.469Z,2.63
2018-07-25T14:19:44.414Z,2.47
2018-07-25T14:22:13.768Z,2.20
2018-07-25T14:24:42.829Z,2.23
2018-07-25T14:27:12.174Z,2.40
2018-07-25T14:29:42.302Z,2.80
2018-07-25T14:32:11.185Z,2.47
2018-07-25T14:34:40.589Z,2.43
2018-07-25T14:37:09.960Z,2.40
2018-07-25T14:39:42.989Z,2.50
2018-07-25T14:42:11.925Z,2.40
2018-07-25T14:44:40.962Z,2.50
2018-07-25T14:47:11.565Z,2.10
2018-07-25T14:49:40.568Z,2.30
2018-07-25T14:52:09.540Z,2.30
2018-07-25T14:54:39.908Z,2.30
2018-07-25T14:57:08.728Z,2.13
2018-07-25T14:59:37.726Z,1.60
2018-07-25T15:02:06.634Z,1.93
2018-07-25T15:04:35.536Z,2.23
2018-07-25T15:07:04.647Z,2.50
2018-07-25T15:09:33.559Z,2.73
2018-07-25T15:12:02.475Z,2.50
2018-07-25T15:14:32.859Z,2.33
2018-07-25T15:17:01.995Z,2.73
2018-07-25T15:19:31.155Z,2.77
2018-07-25T15:22:00.784Z,2.83
2018-07-25T15:24:29.797Z,2.93
2018-07-25T15:26:58.733Z,2.80
2018-07-25T15:29:27.474Z,2.83
2018-07-25T15:31:56.268Z,2.80
2018-07-25T15:34:25.062Z,2.80
2018-07-25T15:36:54.166Z,2.80
2018-07-25T15:39:24.809Z,2.80
2018-07-25T15:41:54.743Z,2.50
2018-07-25T15:44:24.439Z,2.77
2018-07-25T15:46:53.679Z,2.97
2018-07-25T15:49:22.633Z,2.90
2018-07-25T15:51:51.799Z,2.87
2018-07-25T15:54:20.675Z,3.00
2018-07-25T15:56:50.510Z,3.20
2018-07-25T15:59:20.055Z,2.73
2018-07-25T16:01:49.293Z,2.90
2018-07-25T16:04:18.261Z,2.50
2018-07-25T16:06:47.882Z,2.90
2018-07-25T16:09:16.737Z,2.90
2018-07-25T16:11:47.142Z,3.30
2018-07-25T16:14:17.515Z,3.13
2018-07-25T16:16:46.427Z,3.10
2018-07-25T16:19:15.251Z,3.10
2018-07-25T16:21:44.983Z,3.73
2018-07-25T16:24:16.100Z,3.90
2018-07-25T16:26:44.990Z,4.03
2018-07-25T16:29:13.849Z,3.90
2018-07-25T16:31:42.725Z,3.80
2018-07-25T16:34:11.649Z,4.03
2018-07-25T16:36:40.377Z,4.10
2018-07-25T16:39:13.862Z,4.17
2018-07-25T16:41:43.369Z,4.23
2018-07-25T16:44:12.649Z,4.90
2018-07-25T16:46:41.470Z,4.70
2018-07-25T16:49:10.540Z,4.80
2018-07-25T16:51:39.428Z,4.80
2018-07-25T16:54:08.313Z,8.50
2018-07-25T16:56:37.016Z,4.80
2018-07-25T16:59:05.921Z,4.50
2018-07-25T17:01:38.407Z,4.87
2018-07-25T17:04:07.157Z,4.53
2018-07-25T17:06:38.499Z,3.90
2018-07-25T17:09:11.816Z,4.30
2018-07-25T17:11:42.677Z,4.53
2018-07-25T17:14:11.600Z,4.30
2018-07-25T17:16:40.993Z,4.23
2018-07-25T17:19:09.637Z,3.80
2018-07-25T17:21:38.262Z,4.50
2018-07-25T17:24:07.065Z,4.27
2018-07-25T17:26:35.780Z,4.20
2018-07-25T17:29:04.706Z,4.17
2018-07-25T17:31:33.479Z,4.00
2018-07-25T17:34:02.477Z,3.43
2018-07-25T17:36:31.179Z,3.70
2018-07-25T17:38:59.968Z,4.40
2018-07-25T17:41:28.910Z,3.67
2018-07-25T17:43:57.668Z,3.43
2018-07-25T17:46:26.431Z,4.00
2018-07-25T17:48:56.030Z,3.60
2018-07-25T17:51:24.812Z,3.30
2018-07-25T17:53:53.609Z,3.73
2018-07-25T17:56:22.653Z,3.47
2018-07-25T17:58:51.464Z,3.60
2018-07-25T18:01:20.270Z,4.10
2018-07-25T18:03:49.818Z,5.23
2018-07-25T18:06:18.649Z,4.03
2018-07-25T18:08:47.590Z,3.40
2018-07-25T18:11:16.485Z,3.60
2018-07-25T18:13:50.838Z,4.13
2018-07-25T18:16:19.766Z,4.67
2018-07-25T18:18:48.508Z,4.03
2018-07-25T18:21:17.362Z,4.50
2018-07-25T18:23:46.142Z,4.93
2018-07-25T18:26:15.506Z,4.20
2018-07-25T18:28:44.334Z,4.17
2018-07-25T18:31:13.201Z,5.20
2018-07-25T18:33:41.893Z,5.20
2018-07-25T18:36:10.781Z,3.73
2018-07-25T18:38:39.656Z,4.23
2018-07-25T18:41:08.876Z,4.60
2018-07-25T18:43:38.010Z,4.90
2018-07-25T18:46:06.862Z,4.40
2018-07-25T18:48:36.719Z,3.70
2018-07-25T18:51:05.736Z,4.70
2018-07-25T18:53:35.745Z,4.17
2018-07-25T18:56:04.615Z,4.63
2018-07-25T18:58:33.484Z,4.43
2018-07-25T19:01:02.239Z,4.80
2018-07-25T19:03:31.012Z,4.63
2018-07-25T19:05:59.873Z,4.50
2018-07-25T19:08:28.628Z,3.97
2018-07-25T19:10:57.472Z,4.37
2018-07-25T19:13:31.449Z,4.60
2018-07-25T19:16:00.281Z,4.60
2018-07-25T19:18:29.974Z,4.53
2018-07-25T19:20:58.871Z,4.83
2018-07-25T19:23:27.757Z,4.67
2018-07-25T19:25:56.602Z,4.80
2018-07-25T19:28:25.654Z,4.50
2018-07-25T19:30:54.454Z,4.30
2018-07-25T19:33:23.273Z,4.77
2018-07-25T19:35:52.074Z,4.20
2018-07-25T19:38:20.829Z,4.70
2018-07-25T19:40:49.693Z,4.50
2018-07-25T19:43:18.480Z,4.90
2018-07-25T19:45:47.283Z,4.87
2018-07-25T19:48:16.078Z,4.70
2018-07-25T19:50:44.810Z,5.57
2018-07-25T19:53:13.558Z,4.60
2018-07-25T19:55:42.420Z,5.10
2018-07-25T19:58:11.279Z,5.07
2018-07-25T20:00:40.321Z,4.93
2018-07-25T20:03:09.209Z,5.07
2018-07-25T20:05:37.933Z,5.10
2018-07-25T20:08:06.771Z,4.70
2018-07-25T20:10:35.583Z,4.87
2018-07-25T20:13:04.391Z,4.80
2018-07-25T20:15:38.483Z,4.90
2018-07-25T20:18:07.565Z,4.47
2018-07-25T20:20:36.319Z,4.73
2018-07-25T20:23:05.157Z,4.83
2018-07-25T20:25:35.206Z,4.70
2018-07-25T20:28:04.013Z,4.73
2018-07-25T20:30:32.961Z,4.90
2018-07-25T20:33:01.771Z,5.07
2018-07-25T20:35:30.619Z,5.37
2018-07-25T20:37:59.490Z,5.23
2018-07-25T20:40:28.798Z,5.00
2018-07-25T20:42:57.953Z,5.20
2018-07-25T20:45:26.838Z,5.13
2018-07-25T20:47:55.742Z,5.00
2018-07-25T20:50:25.390Z,5.00
2018-07-25T20:52:54.214Z,5.00
2018-07-25T20:55:22.984Z,5.20
2018-07-25T20:57:51.745Z,5.03
2018-07-25T21:00:25.884Z,5.30
2018-07-25T21:02:54.588Z,5.07
2018-07-25T21:05:23.397Z,5.07
2018-07-25T21:07:52.249Z,5.47
2018-07-25T21:10:21.085Z,5.47
2018-07-25T21:12:49.975Z,4.90
2018-07-25T21:15:18.777Z,5.33
2018-07-25T21:17:47.600Z,5.40
2018-07-25T21:20:16.328Z,5.03
2018-07-25T21:22:45.155Z,5.00
2018-07-25T21:25:14.004Z,5.07
2018-07-25T21:27:42.876Z,4.80
2018-07-25T21:30:11.640Z,5.60
2018-07-25T21:32:40.509Z,5.17
2018-07-25T21:35:09.514Z,5.13
2018-07-25T21:37:38.254Z,5.27
2018-07-25T21:40:07.026Z,5.20
2018-07-25T21:42:39.534Z,5.67
2018-07-25T21:45:08.510Z,5.37
2018-07-25T21:47:37.366Z,5.30
2018-07-25T21:50:06.239Z,5.17
2018-07-25T21:52:35.195Z,5.27
2018-07-25T21:55:04.075Z,5.60
2018-07-25T21:57:32.821Z,4.77
2018-07-25T22:00:02.984Z,5.50
2018-07-25T22:02:31.790Z,5.40
2018-07-25T22:05:00.538Z,5.50
2018-07-25T22:07:29.211Z,5.60
2018-07-25T22:09:58.091Z,5.60
2018-07-25T22:12:26.989Z,4.90
2018-07-25T22:14:55.873Z,5.20
2018-07-25T22:17:24.739Z,5.30
2018-07-25T22:19:53.555Z,4.87
2018-07-25T22:22:22.337Z,5.73
2018-07-25T22:24:51.035Z,5.20
2018-07-25T22:27:19.873Z,5.57
2018-07-25T22:29:48.636Z,5.40
2018-07-25T22:32:17.389Z,5.40
2018-07-25T22:34:46.206Z,5.37
2018-07-25T22:37:14.864Z,5.20
2018-07-25T22:39:43.617Z,5.33
2018-07-25T22:42:12.469Z,5.20
2018-07-25T22:44:41.206Z,5.23
2018-07-25T22:47:10.047Z,5.27
2018-07-25T22:49:38.809Z,5.23
2018-07-25T22:52:07.613Z,5.67
2018-07-25T22:54:36.409Z,5.17
2018-07-25T22:57:05.197Z,5.37
2018-07-25T22:59:33.953Z,5.47
2018-07-25T23:02:02.758Z,4.90
2018-07-25T23:04:31.623Z,5.60
2018-07-25T23:07:00.408Z,5.20
2018-07-25T23:09:29.169Z,5.63
2018-07-25T23:11:58.094Z,6.00
2018-07-25T23:14:26.882Z,5.30
2018-07-25T23:16:55.633Z,5.07
2018-07-25T23:19:24.429Z,5.20
2018-07-25T23:21:53.265Z,5.30
2018-07-25T23:24:22.067Z,5.77
2018-07-25T23:26:50.879Z,5.70
2018-07-25T23:29:19.716Z,5.60
2018-07-25T23:31:48.515Z,5.30
2018-07-25T23:34:17.325Z,5.33
2018-07-25T23:36:46.131Z,5.50
2018-07-25T23:39:14.925Z,5.80
2018-07-25T23:41:43.769Z,5.73
2018-07-25T23:44:12.554Z,5.73
2018-07-25T23:46:41.377Z,5.73
2018-07-25T23:49:10.182Z,5.90
2018-07-25T23:51:38.966Z,5.77
2018-07-25T23:54:07.834Z,5.43
2018-07-25T23:56:36.566Z,5.60
2018-07-25T23:59:05.377Z,6.03
